sensor_id;sensor_type;location;lat;lon;timestamp;P1;durP1;ratioP1;P2;durP2;ratioP2
3597;SDS011;1813;52.016;8.714;2023-08-30T00:02:23;12.10;;;9.97;;
3597;SDS011;1813;52.016;8.714;2023-08-30T00:04:58;13.03;;;10.20;;
3597;SDS011;1813;52.016;8.714;2023-08-30T00:07:32;11.30;;;9.50;;
3597;SDS011;1813;52.016;8.714;2023-08-30T00:10:06;8.97;;;7.90;;
3597;SDS011;1813;52.016;8.714;2023-08-30T00:12:43;13.70;;;10.90;;
3597;SDS011;1813;52.016;8.714;2023-08-30T00:15:17;12.00;;;9.90;;
3597;SDS011;1813;52.016;8.714;2023-08-30T00:17:51;14.60;;;11.00;;
3597;SDS011;1813;52.016;8.714;2023-08-30T00:20:25;11.43;;;10.20;;
3597;SDS011;1813;52.016;8.714;2023-08-30T00:22:59;11.23;;;9.13;;
3597;SDS011;1813;52.016;8.714;2023-08-30T00:25:33;11.90;;;10.37;;
3597;SDS011;1813;52.016;8.714;2023-08-30T00:28:10;12.33;;;10.90;;
3597;SDS011;1813;52.016;8.714;2023-08-30T00:30:43;12.83;;;11.40;;
3597;SDS011;1813;52.016;8.714;2023-08-30T00:33:17;14.23;;;11.60;;
3597;SDS011;1813;52.016;8.714;2023-08-30T00:35:57;11.93;;;10.70;;
3597;SDS011;1813;52.016;8.714;2023-08-30T00:38:32;12.50;;;11.20;;
3597;SDS011;1813;52.016;8.714;2023-08-30T00:41:06;13.37;;;11.63;;
3597;SDS011;1813;52.016;8.714;2023-08-30T00:43:43;24.77;;;11.50;;
3597;SDS011;1813;52.016;8.714;2023-08-30T00:46:17;16.10;;;11.30;;
3597;SDS011;1813;52.016;8.714;2023-08-30T00:48:51;15.20;;;12.37;;
3597;SDS011;1813;52.016;8.714;2023-08-30T00:51:25;14.70;;;12.30;;
3597;SDS011;1813;52.016;8.714;2023-08-30T00:53:59;14.33;;;12.60;;
3597;SDS011;1813;52.016;8.714;2023-08-30T00:56:33;15.53;;;13.00;;
3597;SDS011;1813;52.016;8.714;2023-08-30T00:59:11;14.33;;;12.70;;
3597;SDS011;1813;52.016;8.714;2023-08-30T01:01:45;17.20;;;13.47;;
3597;SDS011;1813;52.016;8.714;2023-08-30T01:04:19;17.60;;;12.47;;
3597;SDS011;1813;52.016;8.714;2023-08-30T01:06:53;20.97;;;13.07;;
3597;SDS011;1813;52.016;8.714;2023-08-30T01:09:28;14.93;;;12.87;;
3597;SDS011;1813;52.016;8.714;2023-08-30T01:12:04;14.40;;;11.80;;
3597;SDS011;1813;52.016;8.714;2023-08-30T01:14:48;18.90;;;12.00;;
3597;SDS011;1813;52.016;8.714;2023-08-30T01:17:28;12.53;;;11.20;;
3597;SDS011;1813;52.016;8.714;2023-08-30T01:20:04;17.00;;;12.30;;
3597;SDS011;1813;52.016;8.714;2023-08-30T01:22:47;19.87;;;13.20;;
3597;SDS011;1813;52.016;8.714;2023-08-30T01:28:31;17.67;;;12.57;;
3597;SDS011;1813;52.016;8.714;2023-08-30T01:31:07;14.93;;;11.97;;
3597;SDS011;1813;52.016;8.714;2023-08-30T01:33:43;13.70;;;12.10;;
3597;SDS011;1813;52.016;8.714;2023-08-30T01:36:19;13.77;;;11.10;;
3597;SDS011;1813;52.016;8.714;2023-08-30T01:38:53;14.17;;;11.27;;
3597;SDS011;1813;52.016;8.714;2023-08-30T01:41:28;14.20;;;12.20;;
3597;SDS011;1813;52.016;8.714;2023-08-30T01:44:06;14.00;;;12.17;;
3597;SDS011;1813;52.016;8.714;2023-08-30T01:46:40;16.07;;;13.10;;
3597;SDS011;1813;52.016;8.714;2023-08-30T01:49:16;14.27;;;12.27;;
3597;SDS011;1813;52.016;8.714;2023-08-30T01:51:50;20.27;;;13.07;;
3597;SDS011;1813;52.016;8.714;2023-08-30T01:54:25;16.00;;;13.00;;
3597;SDS011;1813;52.016;8.714;2023-08-30T01:57:00;17.20;;;13.10;;
3597;SDS011;1813;52.016;8.714;2023-08-30T01:59:36;16.60;;;13.13;;
3597;SDS011;1813;52.016;8.714;2023-08-30T02:02:10;17.63;;;12.30;;
3597;SDS011;1813;52.016;8.714;2023-08-30T02:04:44;14.13;;;12.30;;
3597;SDS011;1813;52.016;8.714;2023-08-30T02:07:19;15.03;;;12.23;;
3597;SDS011;1813;52.016;8.714;2023-08-30T02:09:57;16.50;;;12.33;;
3597;SDS011;1813;52.016;8.714;2023-08-30T02:12:34;15.80;;;11.80;;
3597;SDS011;1813;52.016;8.714;2023-08-30T02:15:16;16.70;;;12.27;;
3597;SDS011;1813;52.016;8.714;2023-08-30T02:17:52;17.30;;;13.27;;
3597;SDS011;1813;52.016;8.714;2023-08-30T02:20:27;18.50;;;14.10;;
3597;SDS011;1813;52.016;8.714;2023-08-30T02:23:01;19.80;;;14.10;;
3597;SDS011;1813;52.016;8.714;2023-08-30T02:25:34;22.93;;;13.90;;
3597;SDS011;1813;52.016;8.714;2023-08-30T02:28:08;18.00;;;14.00;;
3597;SDS011;1813;52.016;8.714;2023-08-30T02:30:46;17.80;;;14.17;;
3597;SDS011;1813;52.016;8.714;2023-08-30T02:33:21;20.27;;;14.20;;
3597;SDS011;1813;52.016;8.714;2023-08-30T02:35:54;18.40;;;12.50;;
3597;SDS011;1813;52.016;8.714;2023-08-30T02:38:28;19.17;;;14.03;;
3597;SDS011;1813;52.016;8.714;2023-08-30T02:41:02;18.33;;;13.77;;
3597;SDS011;1813;52.016;8.714;2023-08-30T02:43:36;17.23;;;13.37;;
3597;SDS011;1813;52.016;8.714;2023-08-30T02:46:12;18.57;;;14.20;;
3597;SDS011;1813;52.016;8.714;2023-08-30T02:48:46;17.13;;;14.00;;
3597;SDS011;1813;52.016;8.714;2023-08-30T02:51:20;20.17;;;14.87;;
3597;SDS011;1813;52.016;8.714;2023-08-30T02:53:54;15.87;;;14.17;;
3597;SDS011;1813;52.016;8.714;2023-08-30T02:56:28;14.90;;;13.30;;
3597;SDS011;1813;52.016;8.714;2023-08-30T02:59:01;15.50;;;13.47;;
3597;SDS011;1813;52.016;8.714;2023-08-30T03:01:39;17.57;;;13.50;;
3597;SDS011;1813;52.016;8.714;2023-08-30T03:04:14;18.40;;;13.53;;
3597;SDS011;1813;52.016;8.714;2023-08-30T03:06:48;17.20;;;13.80;;
3597;SDS011;1813;52.016;8.714;2023-08-30T03:09:22;19.47;;;13.93;;
3597;SDS011;1813;52.016;8.714;2023-08-30T03:11:56;16.50;;;13.40;;
3597;SDS011;1813;52.016;8.714;2023-08-30T03:14:29;19.77;;;12.97;;
3597;SDS011;1813;52.016;8.714;2023-08-30T03:17:06;15.83;;;13.17;;
3597;SDS011;1813;52.016;8.714;2023-08-30T03:19:42;20.73;;;13.50;;
3597;SDS011;1813;52.016;8.714;2023-08-30T03:22:15;16.83;;;12.73;;
3597;SDS011;1813;52.016;8.714;2023-08-30T03:24:49;16.90;;;13.57;;
3597;SDS011;1813;52.016;8.714;2023-08-30T03:27:23;19.33;;;12.90;;
3597;SDS011;1813;52.016;8.714;2023-08-30T03:29:58;19.83;;;13.10;;
3597;SDS011;1813;52.016;8.714;2023-08-30T03:32:37;17.00;;;13.70;;
3597;SDS011;1813;52.016;8.714;2023-08-30T03:35:11;14.63;;;12.97;;
3597;SDS011;1813;52.016;8.714;2023-08-30T03:37:47;15.27;;;12.57;;
3597;SDS011;1813;52.016;8.714;2023-08-30T03:40:21;14.03;;;12.13;;
3597;SDS011;1813;52.016;8.714;2023-08-30T03:42:56;15.07;;;12.20;;
3597;SDS011;1813;52.016;8.714;2023-08-30T03:45:33;19.10;;;12.27;;
3597;SDS011;1813;52.016;8.714;2023-08-30T03:48:10;16.03;;;13.13;;
3597;SDS011;1813;52.016;8.714;2023-08-30T03:50:44;14.47;;;12.90;;
3597;SDS011;1813;52.016;8.714;2023-08-30T03:53:18;24.50;;;13.67;;
3597;SDS011;1813;52.016;8.714;2023-08-30T03:55:52;20.80;;;14.20;;
3597;SDS011;1813;52.016;8.714;2023-08-30T03:58:27;24.00;;;15.87;;
3597;SDS011;1813;52.016;8.714;2023-08-30T04:01:01;20.50;;;15.10;;
3597;SDS011;1813;52.016;8.714;2023-08-30T04:03:40;20.80;;;14.13;;
3597;SDS011;1813;52.016;8.714;2023-08-30T04:06:13;18.63;;;14.43;;
3597;SDS011;1813;52.016;8.714;2023-08-30T04:08:47;17.43;;;13.40;;
3597;SDS011;1813;52.016;8.714;2023-08-30T04:11:21;14.00;;;12.50;;
3597;SDS011;1813;52.016;8.714;2023-08-30T04:13:55;15.10;;;13.13;;
3597;SDS011;1813;52.016;8.714;2023-08-30T04:16:29;15.80;;;12.97;;
3597;SDS011;1813;52.016;8.714;2023-08-30T04:19:05;15.47;;;12.97;;
3597;SDS011;1813;52.016;8.714;2023-08-30T04:21:39;19.43;;;14.53;;
3597;SDS011;1813;52.016;8.714;2023-08-30T04:24:13;20.80;;;14.20;;
3597;SDS011;1813;52.016;8.714;2023-08-30T04:26:47;18.70;;;13.27;;
3597;SDS011;1813;52.016;8.714;2023-08-30T04:29:23;17.20;;;13.50;;
3597;SDS011;1813;52.016;8.714;2023-08-30T04:31:57;18.00;;;13.60;;
3597;SDS011;1813;52.016;8.714;2023-08-30T04:34:34;15.60;;;12.80;;
3597;SDS011;1813;52.016;8.714;2023-08-30T04:37:08;16.80;;;13.73;;
3597;SDS011;1813;52.016;8.714;2023-08-30T04:39:42;16.20;;;13.10;;
3597;SDS011;1813;52.016;8.714;2023-08-30T04:42:16;20.20;;;13.10;;
3597;SDS011;1813;52.016;8.714;2023-08-30T04:44:50;17.27;;;12.87;;
3597;SDS011;1813;52.016;8.714;2023-08-30T04:47:25;18.87;;;14.23;;
3597;SDS011;1813;52.016;8.714;2023-08-30T04:50:03;16.57;;;13.57;;
3597;SDS011;1813;52.016;8.714;2023-08-30T04:52:40;25.73;;;14.47;;
3597;SDS011;1813;52.016;8.714;2023-08-30T04:55:15;20.03;;;13.70;;
3597;SDS011;1813;52.016;8.714;2023-08-30T04:57:49;21.33;;;14.20;;
3597;SDS011;1813;52.016;8.714;2023-08-30T05:00:25;20.43;;;14.43;;
3597;SDS011;1813;52.016;8.714;2023-08-30T05:02:58;16.43;;;13.30;;
3597;SDS011;1813;52.016;8.714;2023-08-30T05:05:36;18.50;;;13.20;;
3597;SDS011;1813;52.016;8.714;2023-08-30T05:08:11;19.33;;;14.10;;
3597;SDS011;1813;52.016;8.714;2023-08-30T05:10:46;21.00;;;14.70;;
3597;SDS011;1813;52.016;8.714;2023-08-30T05:13:23;26.20;;;14.90;;
3597;SDS011;1813;52.016;8.714;2023-08-30T05:15:57;25.63;;;14.80;;
3597;SDS011;1813;52.016;8.714;2023-08-30T05:18:31;18.97;;;14.33;;
3597;SDS011;1813;52.016;8.714;2023-08-30T05:21:08;19.90;;;14.43;;
3597;SDS011;1813;52.016;8.714;2023-08-30T05:23:42;23.20;;;14.03;;
3597;SDS011;1813;52.016;8.714;2023-08-30T05:26:17;24.87;;;14.93;;
3597;SDS011;1813;52.016;8.714;2023-08-30T05:28:51;19.10;;;14.53;;
3597;SDS011;1813;52.016;8.714;2023-08-30T05:31:25;18.00;;;14.93;;
3597;SDS011;1813;52.016;8.714;2023-08-30T05:34:06;17.27;;;14.57;;
3597;SDS011;1813;52.016;8.714;2023-08-30T05:37:21;23.23;;;14.27;;
3597;SDS011;1813;52.016;8.714;2023-08-30T05:40:01;19.93;;;15.53;;
3597;SDS011;1813;52.016;8.714;2023-08-30T05:42:35;19.13;;;15.50;;
3597;SDS011;1813;52.016;8.714;2023-08-30T05:45:09;23.00;;;15.50;;
3597;SDS011;1813;52.016;8.714;2023-08-30T05:47:43;20.83;;;16.10;;
3597;SDS011;1813;52.016;8.714;2023-08-30T05:50:17;19.97;;;16.47;;
3597;SDS011;1813;52.016;8.714;2023-08-30T05:52:53;21.10;;;16.67;;
3597;SDS011;1813;52.016;8.714;2023-08-30T05:55:27;20.90;;;15.50;;
3597;SDS011;1813;52.016;8.714;2023-08-30T05:58:01;25.63;;;16.07;;
3597;SDS011;1813;52.016;8.714;2023-08-30T06:00:35;22.50;;;16.10;;
3597;SDS011;1813;52.016;8.714;2023-08-30T06:03:09;22.50;;;16.00;;
3597;SDS011;1813;52.016;8.714;2023-08-30T06:05:43;22.13;;;16.10;;
3597;SDS011;1813;52.016;8.714;2023-08-30T06:08:21;20.90;;;16.73;;
3597;SDS011;1813;52.016;8.714;2023-08-30T06:10:55;28.07;;;17.13;;
3597;SDS011;1813;52.016;8.714;2023-08-30T06:13:29;22.90;;;17.13;;
3597;SDS011;1813;52.016;8.714;2023-08-30T06:16:03;21.20;;;16.13;;
3597;SDS011;1813;52.016;8.714;2023-08-30T06:18:37;24.90;;;17.50;;
3597;SDS011;1813;52.016;8.714;2023-08-30T06:21:11;21.93;;;16.83;;
3597;SDS011;1813;52.016;8.714;2023-08-30T06:23:48;27.70;;;17.33;;
3597;SDS011;1813;52.016;8.714;2023-08-30T06:26:22;31.13;;;16.50;;
3597;SDS011;1813;52.016;8.714;2023-08-30T06:28:56;24.17;;;17.00;;
3597;SDS011;1813;52.016;8.714;2023-08-30T06:31:30;23.00;;;17.73;;
3597;SDS011;1813;52.016;8.714;2023-08-30T06:34:03;25.80;;;18.97;;
3597;SDS011;1813;52.016;8.714;2023-08-30T06:36:37;26.70;;;17.80;;
3597;SDS011;1813;52.016;8.714;2023-08-30T06:39:14;26.87;;;19.03;;
3597;SDS011;1813;52.016;8.714;2023-08-30T06:41:48;28.17;;;20.30;;
3597;SDS011;1813;52.016;8.714;2023-08-30T06:44:24;30.90;;;22.07;;
3597;SDS011;1813;52.016;8.714;2023-08-30T06:46:59;32.80;;;21.70;;
3597;SDS011;1813;52.016;8.714;2023-08-30T06:49:33;39.00;;;27.00;;
3597;SDS011;1813;52.016;8.714;2023-08-30T06:52:06;39.13;;;25.70;;
3597;SDS011;1813;52.016;8.714;2023-08-30T06:54:43;35.60;;;25.30;;
3597;SDS011;1813;52.016;8.714;2023-08-30T06:57:16;36.37;;;25.27;;
3597;SDS011;1813;52.016;8.714;2023-08-30T06:59:52;39.70;;;25.60;;
3597;SDS011;1813;52.016;8.714;2023-08-30T07:02:27;39.47;;;26.10;;
3597;SDS011;1813;52.016;8.714;2023-08-30T07:05:01;39.07;;;25.80;;
3597;SDS011;1813;52.016;8.714;2023-08-30T07:07:36;31.80;;;23.50;;
3597;SDS011;1813;52.016;8.714;2023-08-30T07:10:12;34.77;;;23.60;;
3597;SDS011;1813;52.016;8.714;2023-08-30T07:12:46;33.97;;;24.47;;
3597;SDS011;1813;52.016;8.714;2023-08-30T07:15:20;34.67;;;24.97;;
3597;SDS011;1813;52.016;8.714;2023-08-30T07:17:54;36.53;;;24.93;;
3597;SDS011;1813;52.016;8.714;2023-08-30T07:20:27;37.10;;;24.47;;
3597;SDS011;1813;52.016;8.714;2023-08-30T07:23:04;34.00;;;24.73;;
3597;SDS011;1813;52.016;8.714;2023-08-30T07:25:40;34.47;;;23.40;;
3597;SDS011;1813;52.016;8.714;2023-08-30T07:28:14;33.93;;;22.50;;
3597;SDS011;1813;52.016;8.714;2023-08-30T07:30:48;31.17;;;22.63;;
3597;SDS011;1813;52.016;8.714;2023-08-30T07:33:22;35.07;;;24.40;;
3597;SDS011;1813;52.016;8.714;2023-08-30T07:35:56;34.30;;;24.47;;
3597;SDS011;1813;52.016;8.714;2023-08-30T07:38:30;32.00;;;22.57;;
3597;SDS011;1813;52.016;8.714;2023-08-30T07:41:06;30.77;;;23.40;;
3597;SDS011;1813;52.016;8.714;2023-08-30T07:43:40;31.07;;;23.03;;
3597;SDS011;1813;52.016;8.714;2023-08-30T07:46:14;31.23;;;22.60;;
3597;SDS011;1813;52.016;8.714;2023-08-30T07:48:47;31.53;;;22.10;;
3597;SDS011;1813;52.016;8.714;2023-08-30T07:51:21;32.83;;;22.30;;
3597;SDS011;1813;52.016;8.714;2023-08-30T07:53:55;31.87;;;22.50;;
3597;SDS011;1813;52.016;8.714;2023-08-30T07:56:32;28.87;;;20.83;;
3597;SDS011;1813;52.016;8.714;2023-08-30T07:59:06;31.83;;;21.67;;
3597;SDS011;1813;52.016;8.714;2023-08-30T08:01:40;29.87;;;21.80;;
3597;SDS011;1813;52.016;8.714;2023-08-30T08:04:14;29.87;;;22.27;;
3597;SDS011;1813;52.016;8.714;2023-08-30T08:06:48;29.30;;;21.53;;
3597;SDS011;1813;52.016;8.714;2023-08-30T08:09:22;32.33;;;22.23;;
3597;SDS011;1813;52.016;8.714;2023-08-30T08:11:58;31.90;;;22.37;;
3597;SDS011;1813;52.016;8.714;2023-08-30T08:14:32;30.70;;;21.70;;
3597;SDS011;1813;52.016;8.714;2023-08-30T08:17:06;29.70;;;21.33;;
3597;SDS011;1813;52.016;8.714;2023-08-30T08:19:40;29.97;;;22.40;;
3597;SDS011;1813;52.016;8.714;2023-08-30T08:22:14;31.57;;;22.30;;
3597;SDS011;1813;52.016;8.714;2023-08-30T08:24:48;31.73;;;22.30;;
3597;SDS011;1813;52.016;8.714;2023-08-30T08:27:27;30.30;;;21.90;;
3597;SDS011;1813;52.016;8.714;2023-08-30T08:30:00;31.77;;;22.37;;
3597;SDS011;1813;52.016;8.714;2023-08-30T08:32:34;29.63;;;22.30;;
3597;SDS011;1813;52.016;8.714;2023-08-30T08:35:09;30.03;;;22.20;;
3597;SDS011;1813;52.016;8.714;2023-08-30T08:37:42;32.70;;;21.03;;
3597;SDS011;1813;52.016;8.714;2023-08-30T08:40:16;29.63;;;21.97;;
3597;SDS011;1813;52.016;8.714;2023-08-30T08:42:53;28.37;;;20.93;;
3597;SDS011;1813;52.016;8.714;2023-08-30T08:45:28;31.17;;;19.30;;
3597;SDS011;1813;52.016;8.714;2023-08-30T08:48:03;26.67;;;19.20;;
3597;SDS011;1813;52.016;8.714;2023-08-30T08:50:38;24.13;;;18.83;;
3597;SDS011;1813;52.016;8.714;2023-08-30T08:53:12;25.90;;;18.30;;
3597;SDS011;1813;52.016;8.714;2023-08-30T08:55:46;26.23;;;18.97;;
3597;SDS011;1813;52.016;8.714;2023-08-30T08:58:24;24.77;;;19.27;;
3597;SDS011;1813;52.016;8.714;2023-08-30T09:00:58;24.17;;;18.70;;
3597;SDS011;1813;52.016;8.714;2023-08-30T09:03:33;26.33;;;18.53;;
3597;SDS011;1813;52.016;8.714;2023-08-30T09:06:07;24.97;;;18.23;;
3597;SDS011;1813;52.016;8.714;2023-08-30T09:08:41;24.07;;;17.97;;
3597;SDS011;1813;52.016;8.714;2023-08-30T09:11:15;28.13;;;18.20;;
3597;SDS011;1813;52.016;8.714;2023-08-30T09:13:52;24.17;;;17.60;;
3597;SDS011;1813;52.016;8.714;2023-08-30T09:16:26;24.17;;;17.73;;
3597;SDS011;1813;52.016;8.714;2023-08-30T09:18:59;21.63;;;16.13;;
3597;SDS011;1813;52.016;8.714;2023-08-30T09:21:34;21.23;;;14.80;;
3597;SDS011;1813;52.016;8.714;2023-08-30T09:24:08;16.83;;;13.47;;
3597;SDS011;1813;52.016;8.714;2023-08-30T09:26:46;18.53;;;14.63;;
3597;SDS011;1813;52.016;8.714;2023-08-30T09:29:23;19.47;;;15.10;;
3597;SDS011;1813;52.016;8.714;2023-08-30T09:31:57;21.80;;;16.03;;
3597;SDS011;1813;52.016;8.714;2023-08-30T09:34:31;18.50;;;13.93;;
3597;SDS011;1813;52.016;8.714;2023-08-30T09:37:05;21.50;;;14.70;;
3597;SDS011;1813;52.016;8.714;2023-08-30T09:39:47;18.40;;;13.23;;
3597;SDS011;1813;52.016;8.714;2023-08-30T09:42:22;17.70;;;12.70;;
3597;SDS011;1813;52.016;8.714;2023-08-30T09:44:58;19.00;;;13.47;;
3597;SDS011;1813;52.016;8.714;2023-08-30T09:47:33;21.23;;;14.40;;
3597;SDS011;1813;52.016;8.714;2023-08-30T09:50:07;16.80;;;13.97;;
3597;SDS011;1813;52.016;8.714;2023-08-30T09:52:42;19.93;;;13.70;;
3597;SDS011;1813;52.016;8.714;2023-08-30T09:55:16;17.73;;;13.33;;
3597;SDS011;1813;52.016;8.714;2023-08-30T09:57:52;14.13;;;12.47;;
3597;SDS011;1813;52.016;8.714;2023-08-30T10:00:29;16.40;;;13.00;;
3597;SDS011;1813;52.016;8.714;2023-08-30T10:03:04;15.00;;;11.97;;
3597;SDS011;1813;52.016;8.714;2023-08-30T10:05:38;17.23;;;12.20;;
3597;SDS011;1813;52.016;8.714;2023-08-30T10:08:14;16.60;;;13.60;;
3597;SDS011;1813;52.016;8.714;2023-08-30T10:10:48;16.77;;;13.20;;
3597;SDS011;1813;52.016;8.714;2023-08-30T10:13:24;17.63;;;13.70;;
3597;SDS011;1813;52.016;8.714;2023-08-30T10:16:01;18.57;;;14.60;;
3597;SDS011;1813;52.016;8.714;2023-08-30T10:18:38;14.03;;;10.20;;
3597;SDS011;1813;52.016;8.714;2023-08-30T10:21:12;13.53;;;9.30;;
3597;SDS011;1813;52.016;8.714;2023-08-30T10:23:48;12.80;;;11.33;;
3597;SDS011;1813;52.016;8.714;2023-08-30T10:26:26;15.73;;;12.47;;
3597;SDS011;1813;52.016;8.714;2023-08-30T10:29:02;16.40;;;12.23;;
3597;SDS011;1813;52.016;8.714;2023-08-30T10:31:40;16.87;;;11.00;;
3597;SDS011;1813;52.016;8.714;2023-08-30T10:34:14;15.40;;;11.27;;
3597;SDS011;1813;52.016;8.714;2023-08-30T10:36:56;12.57;;;10.13;;
3597;SDS011;1813;52.016;8.714;2023-08-30T10:39:34;13.40;;;10.37;;
3597;SDS011;1813;52.016;8.714;2023-08-30T10:42:09;16.07;;;11.77;;
3597;SDS011;1813;52.016;8.714;2023-08-30T10:44:56;14.37;;;11.70;;
3597;SDS011;1813;52.016;8.714;2023-08-30T10:47:36;11.90;;;10.70;;
3597;SDS011;1813;52.016;8.714;2023-08-30T10:50:11;12.73;;;10.90;;
3597;SDS011;1813;52.016;8.714;2023-08-30T10:52:54;13.10;;;10.60;;
3597;SDS011;1813;52.016;8.714;2023-08-30T10:55:28;13.17;;;11.30;;
3597;SDS011;1813;52.016;8.714;2023-08-30T10:58:03;12.03;;;9.20;;
3597;SDS011;1813;52.016;8.714;2023-08-30T11:00:38;12.80;;;11.37;;
3597;SDS011;1813;52.016;8.714;2023-08-30T11:03:17;14.13;;;10.57;;
3597;SDS011;1813;52.016;8.714;2023-08-30T11:05:52;13.37;;;11.13;;
3597;SDS011;1813;52.016;8.714;2023-08-30T11:08:26;12.67;;;9.93;;
3597;SDS011;1813;52.016;8.714;2023-08-30T11:11:05;15.80;;;11.03;;
3597;SDS011;1813;52.016;8.714;2023-08-30T11:13:41;16.37;;;11.80;;
3597;SDS011;1813;52.016;8.714;2023-08-30T11:16:20;14.53;;;11.63;;
3597;SDS011;1813;52.016;8.714;2023-08-30T11:18:57;14.07;;;11.70;;
3597;SDS011;1813;52.016;8.714;2023-08-30T11:21:32;12.63;;;9.40;;
3597;SDS011;1813;52.016;8.714;2023-08-30T11:24:07;11.90;;;9.70;;
3597;SDS011;1813;52.016;8.714;2023-08-30T11:26:42;14.33;;;12.20;;
3597;SDS011;1813;52.016;8.714;2023-08-30T11:29:16;12.83;;;10.70;;
3597;SDS011;1813;52.016;8.714;2023-08-30T11:31:50;11.30;;;9.83;;
3597;SDS011;1813;52.016;8.714;2023-08-30T11:34:27;10.50;;;8.83;;
3597;SDS011;1813;52.016;8.714;2023-08-30T11:37:00;9.77;;;8.13;;
3597;SDS011;1813;52.016;8.714;2023-08-30T11:39:34;10.87;;;8.50;;
3597;SDS011;1813;52.016;8.714;2023-08-30T11:42:09;9.83;;;8.40;;
3597;SDS011;1813;52.016;8.714;2023-08-30T11:44:43;9.53;;;8.30;;
3597;SDS011;1813;52.016;8.714;2023-08-30T11:47:18;9.60;;;8.60;;
3597;SDS011;1813;52.016;8.714;2023-08-30T11:49:55;13.30;;;9.37;;
3597;SDS011;1813;52.016;8.714;2023-08-30T11:52:30;8.60;;;7.33;;
3597;SDS011;1813;52.016;8.714;2023-08-30T11:55:05;10.13;;;7.80;;
3597;SDS011;1813;52.016;8.714;2023-08-30T11:57:40;15.80;;;8.50;;
3597;SDS011;1813;52.016;8.714;2023-08-30T12:00:20;14.20;;;7.33;;
3597;SDS011;1813;52.016;8.714;2023-08-30T12:02:55;9.50;;;7.50;;
3597;SDS011;1813;52.016;8.714;2023-08-30T12:05:31;9.17;;;6.20;;
3597;SDS011;1813;52.016;8.714;2023-08-30T12:08:16;7.10;;;5.93;;
3597;SDS011;1813;52.016;8.714;2023-08-30T12:10:51;9.27;;;6.10;;
3597;SDS011;1813;52.016;8.714;2023-08-30T12:13:26;6.83;;;5.80;;
3597;SDS011;1813;52.016;8.714;2023-08-30T12:16:01;7.10;;;6.07;;
3597;SDS011;1813;52.016;8.714;2023-08-30T12:18:36;10.43;;;6.53;;
3597;SDS011;1813;52.016;8.714;2023-08-30T12:21:12;6.80;;;6.10;;
3597;SDS011;1813;52.016;8.714;2023-08-30T12:23:47;7.47;;;6.37;;
3597;SDS011;1813;52.016;8.714;2023-08-30T12:26:21;6.27;;;5.67;;
3597;SDS011;1813;52.016;8.714;2023-08-30T12:29:07;8.10;;;5.93;;
3597;SDS011;1813;52.016;8.714;2023-08-30T12:31:41;8.57;;;6.73;;
3597;SDS011;1813;52.016;8.714;2023-08-30T12:34:15;7.60;;;6.90;;
3597;SDS011;1813;52.016;8.714;2023-08-30T12:36:51;14.07;;;6.90;;
3597;SDS011;1813;52.016;8.714;2023-08-30T12:39:25;9.43;;;6.50;;
3597;SDS011;1813;52.016;8.714;2023-08-30T12:41:59;6.80;;;5.63;;
3597;SDS011;1813;52.016;8.714;2023-08-30T12:44:33;7.33;;;6.53;;
3597;SDS011;1813;52.016;8.714;2023-08-30T12:47:07;10.63;;;6.23;;
3597;SDS011;1813;52.016;8.714;2023-08-30T12:49:44;6.10;;;5.50;;
3597;SDS011;1813;52.016;8.714;2023-08-30T12:52:20;7.80;;;5.67;;
3597;SDS011;1813;52.016;8.714;2023-08-30T12:54:54;8.20;;;6.50;;
3597;SDS011;1813;52.016;8.714;2023-08-30T12:57:28;8.37;;;6.80;;
3597;SDS011;1813;52.016;8.714;2023-08-30T13:00:02;7.40;;;6.00;;
3597;SDS011;1813;52.016;8.714;2023-08-30T13:02:36;8.53;;;6.50;;
3597;SDS011;1813;52.016;8.714;2023-08-30T13:05:10;7.10;;;6.40;;
3597;SDS011;1813;52.016;8.714;2023-08-30T13:07:46;8.90;;;7.10;;
3597;SDS011;1813;52.016;8.714;2023-08-30T13:10:21;9.70;;;6.83;;
3597;SDS011;1813;52.016;8.714;2023-08-30T13:12:55;9.50;;;7.60;;
3597;SDS011;1813;52.016;8.714;2023-08-30T13:15:28;11.10;;;7.43;;
3597;SDS011;1813;52.016;8.714;2023-08-30T13:18:03;9.77;;;7.73;;
3597;SDS011;1813;52.016;8.714;2023-08-30T13:20:40;8.80;;;7.90;;
3597;SDS011;1813;52.016;8.714;2023-08-30T13:23:16;9.70;;;8.00;;
3597;SDS011;1813;52.016;8.714;2023-08-30T13:25:50;9.60;;;8.23;;
3597;SDS011;1813;52.016;8.714;2023-08-30T13:28:24;11.03;;;8.03;;
3597;SDS011;1813;52.016;8.714;2023-08-30T13:30:58;11.97;;;9.00;;
3597;SDS011;1813;52.016;8.714;2023-08-30T13:33:32;8.80;;;7.90;;
3597;SDS011;1813;52.016;8.714;2023-08-30T13:36:06;10.50;;;9.10;;
3597;SDS011;1813;52.016;8.714;2023-08-30T13:38:42;11.67;;;9.43;;
3597;SDS011;1813;52.016;8.714;2023-08-30T13:41:16;12.57;;;10.30;;
3597;SDS011;1813;52.016;8.714;2023-08-30T13:43:50;14.17;;;9.80;;
3597;SDS011;1813;52.016;8.714;2023-08-30T13:46:24;11.07;;;9.87;;
3597;SDS011;1813;52.016;8.714;2023-08-30T13:48:57;12.57;;;10.87;;
3597;SDS011;1813;52.016;8.714;2023-08-30T13:51:31;17.57;;;10.37;;
3597;SDS011;1813;52.016;8.714;2023-08-30T13:54:09;13.80;;;11.17;;
3597;SDS011;1813;52.016;8.714;2023-08-30T13:56:43;19.40;;;12.47;;
3597;SDS011;1813;52.016;8.714;2023-08-30T13:59:17;15.70;;;13.83;;
3597;SDS011;1813;52.016;8.714;2023-08-30T14:01:51;18.83;;;14.00;;
3597;SDS011;1813;52.016;8.714;2023-08-30T14:04:25;19.00;;;14.77;;
3597;SDS011;1813;52.016;8.714;2023-08-30T14:06:59;20.20;;;14.80;;
3597;SDS011;1813;52.016;8.714;2023-08-30T14:09:36;17.13;;;14.60;;
3597;SDS011;1813;52.016;8.714;2023-08-30T14:12:10;17.73;;;15.83;;
3597;SDS011;1813;52.016;8.714;2023-08-30T14:14:44;19.57;;;17.30;;
3597;SDS011;1813;52.016;8.714;2023-08-30T14:17:18;23.33;;;17.63;;
3597;SDS011;1813;52.016;8.714;2023-08-30T14:19:53;21.60;;;18.87;;
3597;SDS011;1813;52.016;8.714;2023-08-30T14:22:26;23.20;;;18.60;;
3597;SDS011;1813;52.016;8.714;2023-08-30T14:25:04;24.30;;;19.60;;
3597;SDS011;1813;52.016;8.714;2023-08-30T14:27:38;26.97;;;20.33;;
3597;SDS011;1813;52.016;8.714;2023-08-30T14:30:13;25.77;;;20.33;;
3597;SDS011;1813;52.016;8.714;2023-08-30T14:32:48;26.57;;;21.03;;
3597;SDS011;1813;52.016;8.714;2023-08-30T14:35:22;23.73;;;20.50;;
3597;SDS011;1813;52.016;8.714;2023-08-30T14:37:56;26.60;;;21.43;;
3597;SDS011;1813;52.016;8.714;2023-08-30T14:40:33;24.03;;;19.70;;
3597;SDS011;1813;52.016;8.714;2023-08-30T14:43:08;25.33;;;19.70;;
3597;SDS011;1813;52.016;8.714;2023-08-30T14:45:43;23.60;;;19.27;;
3597;SDS011;1813;52.016;8.714;2023-08-30T14:48:17;22.17;;;18.17;;
3597;SDS011;1813;52.016;8.714;2023-08-30T14:50:51;21.67;;;19.00;;
3597;SDS011;1813;52.016;8.714;2023-08-30T14:53:25;21.23;;;18.10;;
3597;SDS011;1813;52.016;8.714;2023-08-30T14:56:02;21.17;;;17.60;;
3597;SDS011;1813;52.016;8.714;2023-08-30T14:58:39;22.33;;;18.60;;
3597;SDS011;1813;52.016;8.714;2023-08-30T15:01:13;25.50;;;18.87;;
3597;SDS011;1813;52.016;8.714;2023-08-30T15:03:47;19.10;;;16.30;;
3597;SDS011;1813;52.016;8.714;2023-08-30T15:06:21;19.67;;;17.03;;
3597;SDS011;1813;52.016;8.714;2023-08-30T15:08:55;23.40;;;18.13;;
3597;SDS011;1813;52.016;8.714;2023-08-30T15:11:31;24.20;;;17.97;;
3597;SDS011;1813;52.016;8.714;2023-08-30T15:14:05;19.80;;;16.80;;
3597;SDS011;1813;52.016;8.714;2023-08-30T15:16:39;19.00;;;15.93;;
3597;SDS011;1813;52.016;8.714;2023-08-30T15:19:13;19.77;;;16.40;;
3597;SDS011;1813;52.016;8.714;2023-08-30T15:21:50;19.53;;;15.27;;
3597;SDS011;1813;52.016;8.714;2023-08-30T15:24:23;21.10;;;16.37;;
3597;SDS011;1813;52.016;8.714;2023-08-30T15:27:00;17.20;;;15.00;;
3597;SDS011;1813;52.016;8.714;2023-08-30T15:29:34;19.47;;;15.97;;
3597;SDS011;1813;52.016;8.714;2023-08-30T15:32:07;26.17;;;15.83;;
3597;SDS011;1813;52.016;8.714;2023-08-30T15:34:41;21.07;;;15.43;;
3597;SDS011;1813;52.016;8.714;2023-08-30T15:37:35;17.40;;;14.47;;
3597;SDS011;1813;52.016;8.714;2023-08-30T15:40:10;18.23;;;15.40;;
3597;SDS011;1813;52.016;8.714;2023-08-30T15:42:47;14.13;;;12.63;;